Archival Weather

Fayette Rgnl Air Cntr Arp

Fayette Rgnl Air Cntr Arp, Texas (K3T5)

Report from: Thursday, September 22, 2022 12:55 AM CDT
Current time: Friday, February 3, 2023 11:46 PM CST

Current weather
Weather history
Weather forecast

Temperature24.5°C (76.1°F)
Dew point21.8°C (71.2°F)
Winds 3 kts (1.5 m/s, 3.5 mph) South-Southwest (210°)
Visibility10 mi. (16.1 km)
Clouds Sky clear
Altimeter29.98 in.Hg (1015 mB)
Relative humidity85 %
Density altitude1,386 ft. (422 m)
Max temp last 6 hours32.5°C (90.5°F)
Min temp last 6 hours24.3°C (75.7°F)
Max temp last 24 hours35.1°C (95.2°F)
Min temp last 24 hours20.2°C (68.4°F)
Remarks Fully automated report
Automated weather observing station with precipitation discriminator
Flight conditions Visual Meteorological Conditions
Raw dataK3T5 220555Z AUTO 21003KT 10SM CLR 25/22 A2998 RMK AO2 T02450218 10325 20243 403510202
An unhandled exception has occurred. See browser dev tools for details. Reload 🗙